createdAt,value
2022-08-23T00:03:03.385Z,4.30
2022-08-23T00:07:50.394Z,4.47
2022-08-23T00:12:38.406Z,5.75
2022-08-23T00:17:33.829Z,4.43
2022-08-23T00:22:20.209Z,5.55
2022-08-23T00:27:09.096Z,5.75
2022-08-23T00:31:57.268Z,5.80
2022-08-23T00:36:42.708Z,11.93
2022-08-23T00:41:36.265Z,4.50
2022-08-23T00:46:55.548Z,5.07
2022-08-23T00:51:52.783Z,4.22
2022-08-23T00:56:39.870Z,3.58
2022-08-23T01:01:25.592Z,4.30
2022-08-23T01:06:15.008Z,6.47
2022-08-23T01:11:09.792Z,6.72
2022-08-23T01:16:03.816Z,4.40
2022-08-23T01:20:54.165Z,7.88
2022-08-23T01:25:42.750Z,4.90
2022-08-23T01:30:32.842Z,5.30
2022-08-23T01:35:18.168Z,6.07
2022-08-23T01:40:03.628Z,5.38
2022-08-23T01:44:52.048Z,5.47
2022-08-23T01:49:37.927Z,5.00
2022-08-23T01:54:22.946Z,8.93
2022-08-23T01:59:09.232Z,5.80
2022-08-23T02:04:04.836Z,5.65
2022-08-23T02:09:03.426Z,7.95
2022-08-23T02:13:49.009Z,6.20
2022-08-23T02:18:34.387Z,6.32
2022-08-23T02:23:23.540Z,5.05
2022-08-23T02:28:09.468Z,6.68
2022-08-23T02:32:54.544Z,5.80
2022-08-23T02:37:42.267Z,8.18
2022-08-23T02:42:30.255Z,6.95
2022-08-23T02:47:15.546Z,6.55
2022-08-23T02:52:00.576Z,9.18
2022-08-23T02:56:46.264Z,7.18
2022-08-23T03:01:39.619Z,6.80
2022-08-23T03:06:26.629Z,8.15
2022-08-23T03:11:15.273Z,6.65
2022-08-23T03:16:00.635Z,6.63
2022-08-23T03:20:49.099Z,8.23
2022-08-23T03:25:34.464Z,7.70
2022-08-23T03:30:20.094Z,7.75
2022-08-23T03:35:06.939Z,6.90
2022-08-23T03:40:02.280Z,7.32
2022-08-23T03:44:47.824Z,9.10
2022-08-23T03:49:32.918Z,5.90
2022-08-23T03:54:18.617Z,7.80
2022-08-23T03:59:14.014Z,8.27
2022-08-23T04:04:00.279Z,8.30
2022-08-23T04:08:45.497Z,7.28
2022-08-23T04:13:31.328Z,6.70
2022-08-23T04:18:18.949Z,6.68
2022-08-23T04:23:04.355Z,8.00
2022-08-23T04:27:49.398Z,8.73
2022-08-23T04:32:34.678Z,5.68
2022-08-23T04:37:24.067Z,9.38
2022-08-23T04:42:23.312Z,8.00
2022-08-23T04:47:08.623Z,7.82
2022-08-23T04:51:54.336Z,7.75
2022-08-23T04:56:42.370Z,4.85
2022-08-23T05:01:28.403Z,6.20
2022-08-23T05:06:13.521Z,7.65
2022-08-23T05:10:58.845Z,8.45
2022-08-23T05:15:47.126Z,10.43
2022-08-23T05:20:32.531Z,8.30
2022-08-23T05:25:17.584Z,9.45
2022-08-23T05:30:03.090Z,10.48
2022-08-23T05:34:50.715Z,9.00
2022-08-23T05:39:37.343Z,9.82
2022-08-23T05:44:22.565Z,11.57
2022-08-23T05:49:08.248Z,8.73
2022-08-23T05:53:57.702Z,9.50
2022-08-23T05:58:43.198Z,10.68
2022-08-23T06:03:28.317Z,8.40
2022-08-23T06:08:13.598Z,9.48
2022-08-23T06:13:01.238Z,8.18
2022-08-23T06:17:46.655Z,10.90
2022-08-23T06:22:33.305Z,7.45
2022-08-23T06:27:19.119Z,6.55
2022-08-23T06:32:08.574Z,8.57
2022-08-23T06:36:56.276Z,10.82
2022-08-23T06:41:42.085Z,10.25
2022-08-23T06:46:30.232Z,7.50
2022-08-23T06:51:22.466Z,7.72
2022-08-23T06:56:08.318Z,7.32
2022-08-23T07:00:57.362Z,7.50
2022-08-23T07:05:43.121Z,6.88
2022-08-23T07:10:30.843Z,7.20
2022-08-23T07:15:16.695Z,7.50
2022-08-23T07:20:01.706Z,7.00
2022-08-23T07:24:47.205Z,7.43
2022-08-23T07:29:34.997Z,7.95
2022-08-23T07:34:21.118Z,6.40
2022-08-23T07:39:07.621Z,6.05
2022-08-23T07:43:53.386Z,3.55
2022-08-23T07:48:56.162Z,3.17
2022-08-23T07:53:45.891Z,1.88
2022-08-23T07:58:31.237Z,3.35
2022-08-23T08:03:17.898Z,1.35
2022-08-23T08:08:06.269Z,0.95
2022-08-23T08:12:51.671Z,2.75
2022-08-23T08:17:36.704Z,1.67
2022-08-23T08:22:22.003Z,3.15
2022-08-23T08:27:10.776Z,1.80
2022-08-23T08:31:56.666Z,3.08
2022-08-23T08:36:44.422Z,1.23
2022-08-23T08:41:43.691Z,0.77
2022-08-23T08:46:42.117Z,1.23
2022-08-23T08:51:44.158Z,1.65
2022-08-23T08:56:33.900Z,2.53
2022-08-23T09:01:19.600Z,3.85
2022-08-23T09:06:18.407Z,2.55
2022-08-23T09:11:10.670Z,2.25
2022-08-23T09:16:06.026Z,3.60
2022-08-23T09:20:55.068Z,1.23
2022-08-23T09:25:43.569Z,3.10
2022-08-23T09:30:49.861Z,2.05
2022-08-23T09:35:35.259Z,1.77
2022-08-23T09:40:23.915Z,1.88
2022-08-23T09:45:31.905Z,2.67
2022-08-23T09:50:29.351Z,1.42
2022-08-23T09:55:29.888Z,1.23
2022-08-23T10:00:28.490Z,1.98
2022-08-23T10:05:22.088Z,1.17
2022-08-23T10:10:21.410Z,1.25
2022-08-23T10:15:06.961Z,3.00
2022-08-23T10:20:01.714Z,1.95
2022-08-23T10:24:49.910Z,1.63
2022-08-23T10:29:42.750Z,8.48
2022-08-23T10:34:50.449Z,2.45
2022-08-23T10:39:48.188Z,1.02
2022-08-23T10:44:41.902Z,1.48
2022-08-23T10:49:28.937Z,1.60
2022-08-23T10:54:24.127Z,1.85
2022-08-23T10:59:17.988Z,3.08
2022-08-23T11:04:06.607Z,2.38
2022-08-23T11:09:00.448Z,1.85
2022-08-23T11:13:56.157Z,2.75
2022-08-23T11:18:47.346Z,1.63
2022-08-23T11:23:48.369Z,2.42
2022-08-23T11:28:43.229Z,2.40
2022-08-23T11:33:45.805Z,1.77
2022-08-23T11:39:01.709Z,1.60
2022-08-23T11:43:51.582Z,1.48
2022-08-23T11:48:43.545Z,2.13
2022-08-23T11:54:02.750Z,1.65
2022-08-23T11:59:31.429Z,1.90
2022-08-23T12:04:36.454Z,2.35
2022-08-23T12:10:06.513Z,1.50
2022-08-23T12:14:58.641Z,1.42
2022-08-23T12:19:46.847Z,1.92
2022-08-23T12:24:38.742Z,2.00
2022-08-23T12:29:32.978Z,2.50
2022-08-23T12:34:28.614Z,2.40
2022-08-23T12:39:26.912Z,1.58
2022-08-23T12:44:13.414Z,1.65
2022-08-23T12:48:59.168Z,2.33
2022-08-23T12:53:48.590Z,2.08
2022-08-23T12:58:37.501Z,4.63
2022-08-23T13:03:26.614Z,2.97
2022-08-23T13:08:14.278Z,3.00
2022-08-23T13:13:03.434Z,1.98
2022-08-23T13:17:48.842Z,2.97
2022-08-23T13:22:36.119Z,2.67
2022-08-23T13:27:27.379Z,2.90
2022-08-23T13:32:36.319Z,1.50
2022-08-23T13:37:26.399Z,3.78
2022-08-23T13:42:13.673Z,1.45
2022-08-23T13:46:59.318Z,1.38
2022-08-23T13:52:45.514Z,2.15
2022-08-23T13:57:16.008Z,2.05
2022-08-23T14:02:02.726Z,1.67
2022-08-23T14:06:52.024Z,1.63
2022-08-23T14:11:38.260Z,1.75
2022-08-23T14:16:39.760Z,1.52
2022-08-23T14:21:25.745Z,1.20
2022-08-23T14:26:17.779Z,1.45
2022-08-23T14:31:03.333Z,1.00
2022-08-23T14:35:48.667Z,1.90
2022-08-23T14:40:34.153Z,1.75
2022-08-23T14:45:22.943Z,1.67
2022-08-23T14:50:12.007Z,1.25
2022-08-23T14:54:57.300Z,3.00
2022-08-23T14:59:42.768Z,1.52
2022-08-23T15:04:34.544Z,2.08
2022-08-23T15:09:21.447Z,1.75
2022-08-23T15:14:07.090Z,0.52
2022-08-23T15:18:54.422Z,0.50
2022-08-23T15:23:42.312Z,0.45
2022-08-23T15:28:27.999Z,1.05
2022-08-23T15:33:13.523Z,1.50
2022-08-23T15:38:01.911Z,1.50
2022-08-23T15:42:49.811Z,0.80
2022-08-23T15:47:39.868Z,0.65
2022-08-23T15:52:25.010Z,0.70
2022-08-23T15:57:10.930Z,0.73
2022-08-23T16:01:58.714Z,0.60
2022-08-23T16:06:45.467Z,0.50
2022-08-23T16:11:31.890Z,1.55
2022-08-23T16:16:22.270Z,1.85
2022-08-23T16:21:09.999Z,1.25
2022-08-23T16:26:00.872Z,1.48
2022-08-23T16:30:46.220Z,1.33
2022-08-23T16:35:31.618Z,1.85
2022-08-23T16:40:19.833Z,1.23
2022-08-23T16:45:05.432Z,1.50
2022-08-23T16:49:50.741Z,2.08
2022-08-23T16:54:36.051Z,1.77
2022-08-23T16:59:23.938Z,1.88
2022-08-23T17:04:09.326Z,0.98
2022-08-23T17:08:54.339Z,1.88
2022-08-23T17:13:39.802Z,2.28
2022-08-23T17:18:27.846Z,1.13
2022-08-23T17:23:14.278Z,3.30
2022-08-23T17:28:00.592Z,3.33
2022-08-23T17:32:47.864Z,3.92
2022-08-23T17:37:35.912Z,2.75
2022-08-23T17:42:21.867Z,3.22
2022-08-23T17:47:08.753Z,3.72
2022-08-23T17:51:54.064Z,4.40
2022-08-23T17:56:50.112Z,3.53
2022-08-23T18:01:36.323Z,5.15
2022-08-23T18:06:22.435Z,4.32
2022-08-23T18:11:08.073Z,6.47
2022-08-23T18:15:55.970Z,4.30
2022-08-23T18:20:41.334Z,4.43
2022-08-23T18:25:27.266Z,3.25
2022-08-23T18:30:14.284Z,3.33
2022-08-23T18:35:01.927Z,4.32
2022-08-23T18:39:47.315Z,3.88
2022-08-23T18:44:32.980Z,3.15
2022-08-23T18:49:18.382Z,3.35
2022-08-23T18:54:07.117Z,2.95
2022-08-23T18:58:52.670Z,3.65
2022-08-23T19:03:37.757Z,3.47
2022-08-23T19:08:23.074Z,5.80
2022-08-23T19:13:11.624Z,9.65
2022-08-23T19:17:58.187Z,5.32
2022-08-23T19:22:43.673Z,2.90
2022-08-23T19:27:29.348Z,6.10
2022-08-23T19:32:17.105Z,6.13
2022-08-23T19:37:03.461Z,2.88
2022-08-23T19:41:49.080Z,3.50
2022-08-23T19:46:34.443Z,6.93
2022-08-23T19:51:24.379Z,4.05
2022-08-23T19:56:11.398Z,3.45
2022-08-23T20:00:56.658Z,3.30
2022-08-23T20:05:42.453Z,7.20
2022-08-23T20:10:30.799Z,5.28
2022-08-23T20:15:17.078Z,7.13
2022-08-23T20:20:02.613Z,9.05
2022-08-23T20:24:52.070Z,4.15
2022-08-23T20:29:40.445Z,5.28
2022-08-23T20:34:28.243Z,5.95
2022-08-23T20:39:13.911Z,6.15
2022-08-23T20:43:59.712Z,4.57
2022-08-23T20:48:49.541Z,6.85
2022-08-23T20:53:35.607Z,5.70
2022-08-23T20:58:20.663Z,2.97
2022-08-23T21:03:06.032Z,3.42
2022-08-23T21:07:53.722Z,4.20
2022-08-23T21:12:39.044Z,2.85
2022-08-23T21:17:24.128Z,5.18
2022-08-23T21:22:09.483Z,3.67
2022-08-23T21:26:57.130Z,3.55
2022-08-23T21:31:42.696Z,4.22
2022-08-23T21:36:28.079Z,3.50
2022-08-23T21:41:28.924Z,6.20
2022-08-23T21:46:16.892Z,2.93
2022-08-23T21:51:02.689Z,4.22
2022-08-23T21:55:48.676Z,4.22
2022-08-23T22:00:34.591Z,4.75
2022-08-23T22:05:22.644Z,3.78
2022-08-23T22:10:09.659Z,1.73
2022-08-23T22:14:55.963Z,2.72
2022-08-23T22:19:41.252Z,3.92
2022-08-23T22:24:29.436Z,3.60
2022-08-23T22:29:15.689Z,2.28
2022-08-23T22:34:03.288Z,3.58
2022-08-23T22:38:48.971Z,3.88
2022-08-23T22:43:37.168Z,3.15
2022-08-23T22:48:22.603Z,5.90
2022-08-23T22:53:08.169Z,3.22
2022-08-23T22:57:53.220Z,3.97
2022-08-23T23:02:41.238Z,3.38
2022-08-23T23:07:38.468Z,3.60
2022-08-23T23:12:23.792Z,2.92
2022-08-23T23:17:09.090Z,3.35
2022-08-23T23:21:59.690Z,3.97
2022-08-23T23:26:47.711Z,6.35
2022-08-23T23:31:33.658Z,3.75
2022-08-23T23:36:18.719Z,3.95
2022-08-23T23:41:11.070Z,1.73
2022-08-23T23:45:56.222Z,4.43
2022-08-23T23:50:45.305Z,3.25
2022-08-23T23:55:32.077Z,4.72
